Time;durP1;ratioP1;P1;durP2;ratioP2;P2;SDS_P1;SDS_P2;PMS_P1;PMS_P2;Temp;Humidity;BMP_temperature;BMP_pressure;BME280_temperature;BME280_humidity;BME280_pressure;Samples;Min_cycle;Max_cycle;Signal;HPM_P1;HPM_P2
2022/08/26 00:01:13;;;;;;;;;;;20.60;99.90;;;;;;6185862;23;19920;-67
2022/08/26 00:03:39;;;;;;;;;;;20.50;99.90;;;;;;6185546;23;19927;-66
2022/08/26 00:06:05;;;;;;;;;;;20.50;99.90;;;;;;6185544;23;19931;-67
2022/08/26 00:08:30;;;;;;;;;;;20.50;99.90;;;;;;6185457;23;19927;-66
2022/08/26 00:10:56;;;;;;;;;;;20.50;99.90;;;;;;6185563;23;19920;-67
2022/08/26 00:13:21;;;;;;;;;;;20.30;99.90;;;;;;6185307;23;19971;-67
2022/08/26 00:15:49;;;;;;;;;;;20.30;99.90;;;;;;6184318;23;19966;-66
2022/08/26 00:18:14;;;;;;;;;;;20.40;99.90;;;;;;6159333;23;20298;-67
2022/08/26 00:20:40;;;;;;;;;;;20.40;99.90;;;;;;6159808;23;19970;-67
2022/08/26 00:23:05;;;;;;;;;;;20.40;99.90;;;;;;6184580;23;19924;-67
2022/08/26 00:25:31;;;;;;;;;;;20.40;99.90;;;;;;6159957;23;19975;-67
2022/08/26 00:27:57;;;;;;;;;;;20.40;99.90;;;;;;6184508;23;20002;-66
2022/08/26 00:30:24;;;;;;;;;;;20.40;99.90;;;;;;6159624;23;19924;-66
2022/08/26 00:32:49;;;;;;;;;;;20.30;99.90;;;;;;6183532;23;19920;-68
2022/08/26 00:35:15;;;;;;;;;;;20.30;99.90;;;;;;6186211;23;19920;-66
2022/08/26 00:37:41;;;;;;;;;;;20.30;99.90;;;;;;6184576;23;20327;-67
2022/08/26 00:40:09;;;;;;;;;;;20.20;99.90;;;;;;6185306;23;19921;-69
2022/08/26 00:42:34;;;;;;;;;;;20.20;99.90;;;;;;6184978;23;19931;-69
2022/08/26 00:45:00;;;;;;;;;;;20.20;99.90;;;;;;6159745;23;20235;-67
2022/08/26 00:47:29;;;;;;;;;;;20.20;99.90;;;;;;6184909;23;19927;-67
2022/08/26 00:49:55;;;;;;;;;;;20.20;99.90;;;;;;6184704;23;19943;-66
2022/08/26 00:52:21;;;;;;;;;;;20.20;99.90;;;;;;6184787;23;19959;-66
2022/08/26 00:54:53;;;;;;;;;;;20.10;99.90;;;;;;6209816;23;20350;-66
2022/08/26 00:57:20;;;;;;;;;;;20.10;99.90;;;;;;6186633;23;19956;-66
2022/08/26 00:59:47;;;;;;;;;;;20.00;99.90;;;;;;6184174;23;19976;-68
2022/08/26 01:02:13;;;;;;;;;;;20.10;99.90;;;;;;6185040;23;19920;-66
2022/08/26 01:04:40;;;;;;;;;;;20.10;99.90;;;;;;6186356;23;19927;-66
2022/08/26 01:07:05;;;;;;;;;;;20.00;99.90;;;;;;6184793;23;19991;-67
2022/08/26 01:09:31;;;;;;;;;;;19.90;99.90;;;;;;6184427;23;20292;-67
2022/08/26 01:11:59;;;;;;;;;;;19.90;99.90;;;;;;6184624;23;19920;-67
2022/08/26 01:14:25;;;;;;;;;;;19.90;99.90;;;;;;6184756;23;19924;-66
2022/08/26 01:16:51;;;;;;;;;;;19.80;99.90;;;;;;6184364;23;20232;-66
2022/08/26 01:19:17;;;;;;;;;;;19.80;99.90;;;;;;6186357;23;19927;-66
2022/08/26 01:21:48;;;;;;;;;;;19.80;99.90;;;;;;6183127;23;19956;-67
2022/08/26 01:24:14;;;;;;;;;;;19.80;99.90;;;;;;6209891;23;19920;-67
2022/08/26 01:26:41;;;;;;;;;;;19.80;99.90;;;;;;6185089;23;19921;-67
2022/08/26 01:29:13;;;;;;;;;;;19.70;99.90;;;;;;6184547;23;20246;-68
2022/08/26 01:31:41;;;;;;;;;;;19.70;99.90;;;;;;6186253;23;19942;-66
2022/08/26 01:34:13;;;;;;;;;;;19.70;99.90;;;;;;6184430;23;19927;-67
2022/08/26 01:36:39;;;;;;;;;;;19.70;99.90;;;;;;6184606;23;19924;-67
2022/08/26 01:39:06;;;;;;;;;;;19.70;99.90;;;;;;6184704;23;19924;-67
2022/08/26 01:41:32;;;;;;;;;;;19.60;99.90;;;;;;6209783;23;19998;-67
2022/08/26 01:43:58;;;;;;;;;;;19.60;99.90;;;;;;6184783;23;19967;-67
2022/08/26 01:46:24;;;;;;;;;;;19.60;99.90;;;;;;6184051;23;19920;-67
2022/08/26 01:48:51;;;;;;;;;;;19.60;99.90;;;;;;6186271;23;19920;-67
2022/08/26 01:51:19;;;;;;;;;;;19.60;99.90;;;;;;6186370;23;19920;-67
2022/08/26 01:53:45;;;;;;;;;;;19.60;99.90;;;;;;6209452;23;20409;-67
2022/08/26 01:56:11;;;;;;;;;;;19.60;99.90;;;;;;6184728;23;20390;-67
2022/08/26 01:58:38;;;;;;;;;;;19.50;99.90;;;;;;6184205;23;19920;-67
2022/08/26 02:01:04;;;;;;;;;;;19.60;99.90;;;;;;6159861;23;20031;-69
2022/08/26 02:03:30;;;;;;;;;;;19.60;99.90;;;;;;6136249;23;19921;-68
2022/08/26 02:06:02;;;;;;;;;;;19.60;99.90;;;;;;6184919;23;19943;-68
2022/08/26 02:08:31;;;;;;;;;;;19.60;99.90;;;;;;6184397;23;19920;-67
2022/08/26 02:10:57;;;;;;;;;;;19.60;99.90;;;;;;6184808;23;19928;-68
2022/08/26 02:13:25;;;;;;;;;;;19.70;99.90;;;;;;6186299;23;19920;-68
2022/08/26 02:15:51;;;;;;;;;;;19.70;99.90;;;;;;6184986;23;19920;-67
2022/08/26 02:18:17;;;;;;;;;;;19.70;99.90;;;;;;6184085;23;19920;-67
2022/08/26 02:20:45;;;;;;;;;;;19.70;99.90;;;;;;6185574;23;20294;-67
2022/08/26 02:23:10;;;;;;;;;;;19.70;99.90;;;;;;6186075;23;19980;-66
2022/08/26 02:25:44;;;;;;;;;;;19.70;99.90;;;;;;6161462;23;19916;-66
2022/08/26 02:28:11;;;;;;;;;;;19.70;99.90;;;;;;6186032;23;20327;-68
2022/08/26 02:30:37;;;;;;;;;;;19.80;99.90;;;;;;6186370;23;19921;-68
2022/08/26 02:33:03;;;;;;;;;;;19.70;99.90;;;;;;6188042;23;20002;-68
2022/08/26 02:35:30;;;;;;;;;;;19.70;99.90;;;;;;6188052;23;19920;-67
2022/08/26 02:37:55;;;;;;;;;;;19.70;99.90;;;;;;6186260;23;19927;-67
2022/08/26 02:40:23;;;;;;;;;;;19.70;99.90;;;;;;6161448;23;20335;-65
2022/08/26 02:42:49;;;;;;;;;;;19.70;99.90;;;;;;6186198;23;19927;-66
2022/08/26 02:45:17;;;;;;;;;;;19.70;99.90;;;;;;6186074;23;19920;-68
2022/08/26 02:47:43;;;;;;;;;;;19.70;99.90;;;;;;6211443;23;19927;-68
2022/08/26 02:50:09;;;;;;;;;;;19.70;99.90;;;;;;6186303;23;20332;-68
2022/08/26 02:52:35;;;;;;;;;;;19.70;99.90;;;;;;6186314;23;19931;-66
2022/08/26 02:55:01;;;;;;;;;;;19.60;99.90;;;;;;6161305;23;19924;-68
2022/08/26 02:57:26;;;;;;;;;;;19.60;99.90;;;;;;6161302;23;19927;-67
2022/08/26 02:59:52;;;;;;;;;;;19.70;99.90;;;;;;6186379;23;19920;-67
2022/08/26 03:02:17;;;;;;;;;;;19.60;99.90;;;;;;6186162;23;19999;-66
2022/08/26 03:04:43;;;;;;;;;;;19.60;99.90;;;;;;6187900;23;20247;-66
2022/08/26 03:07:08;;;;;;;;;;;19.60;99.90;;;;;;6191160;23;19927;-67
2022/08/26 03:09:34;;;;;;;;;;;19.50;99.90;;;;;;6188634;23;20310;-66
2022/08/26 03:12:00;;;;;;;;;;;19.50;99.90;;;;;;6164611;23;19928;-66
2022/08/26 03:14:25;;;;;;;;;;;19.60;99.90;;;;;;6189208;23;19927;-66
2022/08/26 03:16:53;;;;;;;;;;;19.60;99.90;;;;;;6188498;23;19921;-67
2022/08/26 03:19:19;;;;;;;;;;;19.60;99.90;;;;;;6186030;23;19942;-68
2022/08/26 03:21:45;;;;;;;;;;;19.50;99.90;;;;;;6185469;23;19963;-67
2022/08/26 03:24:11;;;;;;;;;;;19.50;99.90;;;;;;6210918;23;19928;-68
2022/08/26 03:26:37;;;;;;;;;;;19.50;99.90;;;;;;6187469;23;19927;-69
2022/08/26 03:31:47;;;;;;;;;;;19.40;99.90;;;;;;6187185;23;20322;-69
2022/08/26 03:34:13;;;;;;;;;;;19.50;99.90;;;;;;6185792;23;19920;-68
2022/08/26 03:36:38;;;;;;;;;;;19.50;99.90;;;;;;6185735;23;19920;-67
2022/08/26 03:39:04;;;;;;;;;;;19.50;99.90;;;;;;6187499;23;19931;-66
2022/08/26 03:41:32;;;;;;;;;;;19.50;99.90;;;;;;6185685;23;19971;-66
2022/08/26 03:43:57;;;;;;;;;;;19.50;99.90;;;;;;6185859;23;20384;-66
2022/08/26 03:46:23;;;;;;;;;;;19.50;99.90;;;;;;6185381;23;19955;-68
2022/08/26 03:48:48;;;;;;;;;;;19.50;99.90;;;;;;6161123;23;19920;-68
2022/08/26 03:51:15;;;;;;;;;;;19.40;99.90;;;;;;6185714;23;20343;-67
2022/08/26 03:53:41;;;;;;;;;;;19.50;99.90;;;;;;6187234;23;19927;-67
2022/08/26 03:56:07;;;;;;;;;;;19.50;99.90;;;;;;6160709;23;20305;-67
2022/08/26 03:58:33;;;;;;;;;;;19.40;99.90;;;;;;6185581;23;19991;-67
2022/08/26 04:00:58;;;;;;;;;;;19.50;99.90;;;;;;6185668;23;20247;-67
2022/08/26 04:06:09;;;;;;;;;;;19.40;99.90;;;;;;6185618;23;19928;-66
2022/08/26 04:08:35;;;;;;;;;;;19.40;99.90;;;;;;6185404;23;19920;-67
2022/08/26 04:11:01;;;;;;;;;;;19.40;99.90;;;;;;6185435;23;20038;-69
2022/08/26 04:13:27;;;;;;;;;;;19.40;99.90;;;;;;6185561;23;19920;-66
2022/08/26 04:15:53;;;;;;;;;;;19.40;99.90;;;;;;6185884;23;19920;-67
2022/08/26 04:18:18;;;;;;;;;;;19.30;99.90;;;;;;6185012;23;20394;-69
2022/08/26 04:20:44;;;;;;;;;;;19.40;99.90;;;;;;6160422;23;19944;-66
2022/08/26 04:23:10;;;;;;;;;;;19.40;99.90;;;;;;6187099;23;19921;-67
2022/08/26 04:25:35;;;;;;;;;;;19.40;99.90;;;;;;6185403;23;19921;-67
2022/08/26 04:28:01;;;;;;;;;;;19.40;99.90;;;;;;6160557;23;19927;-68
2022/08/26 04:30:27;;;;;;;;;;;19.40;99.90;;;;;;6160322;23;20423;-68
2022/08/26 04:32:53;;;;;;;;;;;19.40;99.90;;;;;;6160478;23;19955;-67
2022/08/26 04:35:18;;;;;;;;;;;19.30;99.90;;;;;;6184916;23;19924;-66
2022/08/26 04:37:44;;;;;;;;;;;19.20;99.90;;;;;;6185148;23;19979;-68
2022/08/26 04:40:10;;;;;;;;;;;19.00;99.90;;;;;;6184927;23;19995;-67
2022/08/26 04:42:35;;;;;;;;;;;18.90;99.90;;;;;;6210118;23;19966;-68
2022/08/26 04:45:02;;;;;;;;;;;18.90;99.90;;;;;;6185054;23;19920;-70
2022/08/26 04:47:27;;;;;;;;;;;18.90;99.90;;;;;;6136013;23;20220;-66
2022/08/26 04:49:56;;;;;;;;;;;18.80;99.90;;;;;;6135464;23;19927;-67
2022/08/26 04:52:22;;;;;;;;;;;18.80;99.90;;;;;;6160549;23;20354;-67
2022/08/26 04:54:47;;;;;;;;;;;18.70;99.90;;;;;;6184812;23;19920;-68
2022/08/26 04:57:13;;;;;;;;;;;18.80;99.90;;;;;;6185037;23;19998;-68
2022/08/26 04:59:39;;;;;;;;;;;18.80;99.90;;;;;;6186625;23;20323;-67
2022/08/26 05:02:05;;;;;;;;;;;18.80;99.90;;;;;;6184981;23;19931;-68
2022/08/26 05:04:31;;;;;;;;;;;18.80;99.90;;;;;;6186629;23;19920;-68
2022/08/26 05:06:57;;;;;;;;;;;18.80;99.90;;;;;;6185092;23;19920;-68
2022/08/26 05:09:22;;;;;;;;;;;18.80;99.90;;;;;;6210159;23;20247;-68
2022/08/26 05:11:48;;;;;;;;;;;18.80;99.90;;;;;;6184907;23;19920;-68
2022/08/26 05:14:14;;;;;;;;;;;18.80;99.90;;;;;;6186676;23;20327;-67
2022/08/26 05:16:39;;;;;;;;;;;18.80;99.90;;;;;;6186593;23;20314;-67
2022/08/26 05:19:05;;;;;;;;;;;18.80;99.90;;;;;;6184810;23;19920;-67
2022/08/26 05:21:31;;;;;;;;;;;18.80;99.90;;;;;;6184704;23;19920;-67
2022/08/26 05:23:57;;;;;;;;;;;18.80;99.90;;;;;;6185011;23;19920;-65
2022/08/26 05:26:24;;;;;;;;;;;18.90;99.90;;;;;;6184612;23;20261;-67
2022/08/26 05:28:50;;;;;;;;;;;18.80;99.90;;;;;;6209999;23;19920;-65
2022/08/26 05:31:17;;;;;;;;;;;18.90;99.90;;;;;;6184916;23;19920;-66
2022/08/26 05:33:43;;;;;;;;;;;18.90;99.90;;;;;;6186427;23;20239;-65
2022/08/26 05:36:10;;;;;;;;;;;18.90;99.90;;;;;;6186553;23;19920;-66
2022/08/26 05:38:36;;;;;;;;;;;18.90;99.90;;;;;;6209714;23;19927;-66
2022/08/26 05:41:02;;;;;;;;;;;18.90;99.90;;;;;;6184920;23;19920;-67
2022/08/26 05:43:28;;;;;;;;;;;18.90;99.90;;;;;;6184469;23;19927;-66
2022/08/26 05:45:55;;;;;;;;;;;19.00;99.90;;;;;;6186723;23;19987;-69
2022/08/26 05:48:20;;;;;;;;;;;18.90;99.90;;;;;;6184255;23;19920;-67
2022/08/26 05:50:47;;;;;;;;;;;18.90;99.90;;;;;;6209845;23;20219;-65
2022/08/26 05:53:14;;;;;;;;;;;18.90;99.90;;;;;;6184871;23;20291;-66
2022/08/26 05:55:50;;;;;;;;;;;19.00;99.90;;;;;;6186388;23;19994;-66
2022/08/26 05:58:19;;;;;;;;;;;19.00;99.90;;;;;;6186613;23;19920;-68
2022/08/26 06:00:44;;;;;;;;;;;19.00;99.90;;;;;;6186873;23;20042;-66
2022/08/26 06:03:10;;;;;;;;;;;19.00;99.90;;;;;;6162055;23;19927;-67
2022/08/26 06:05:39;;;;;;;;;;;19.10;99.90;;;;;;6186785;23;20401;-67
2022/08/26 06:08:12;;;;;;;;;;;19.10;99.90;;;;;;6186643;23;19924;-68
2022/08/26 06:10:49;;;;;;;;;;;19.10;99.90;;;;;;6186432;23;19921;-69
2022/08/26 06:13:17;;;;;;;;;;;19.10;99.90;;;;;;6186562;23;19924;-68
2022/08/26 06:15:44;;;;;;;;;;;19.00;99.90;;;;;;6185651;23;19967;-66
2022/08/26 06:18:10;;;;;;;;;;;19.00;99.90;;;;;;6185898;23;19924;-68
2022/08/26 06:20:36;;;;;;;;;;;19.00;99.90;;;;;;6160914;23;19920;-67
2022/08/26 06:25:49;;;;;;;;;;;19.10;99.90;;;;;;6186170;23;19944;-68
2022/08/26 06:28:14;;;;;;;;;;;19.10;99.90;;;;;;6186721;23;20335;-68
2022/08/26 06:30:40;;;;;;;;;;;19.10;99.90;;;;;;6188132;23;19920;-67
2022/08/26 06:33:06;;;;;;;;;;;19.20;99.90;;;;;;6161524;23;20007;-68
2022/08/26 06:35:39;;;;;;;;;;;19.20;99.90;;;;;;6188631;23;19927;-67
2022/08/26 06:38:05;;;;;;;;;;;19.20;99.90;;;;;;6161845;23;19947;-67
2022/08/26 06:40:31;;;;;;;;;;;19.20;99.90;;;;;;6186401;23;20315;-66
2022/08/26 06:42:57;;;;;;;;;;;19.30;99.90;;;;;;6136755;23;19998;-66
2022/08/26 06:45:23;;;;;;;;;;;19.30;99.90;;;;;;6186078;23;19958;-69
2022/08/26 06:47:48;;;;;;;;;;;19.30;99.90;;;;;;6184430;23;20332;-66
2022/08/26 06:50:14;;;;;;;;;;;19.30;99.90;;;;;;6187133;23;20065;-68
2022/08/26 06:52:40;;;;;;;;;;;19.30;99.90;;;;;;6186494;23;20014;-67
2022/08/26 06:55:06;;;;;;;;;;;19.40;99.90;;;;;;6185188;23;19920;-68
2022/08/26 09:36:46;;;;;;;;;;;19.80;99.90;;;;;;6177680;22;20354;-76
2022/08/26 09:39:26;;;;;;;;;;;20.00;99.90;;;;;;6160179;23;19920;-77
2022/08/26 09:42:04;;;;;;;;;;;20.00;99.90;;;;;;6135434;23;19920;-75
2022/08/26 09:44:30;;;;;;;;;;;20.00;99.90;;;;;;6160159;23;19927;-75
2022/08/26 09:47:00;;;;;;;;;;;20.00;99.90;;;;;;6160264;23;19928;-77
2022/08/26 09:49:32;;;;;;;;;;;19.90;99.90;;;;;;6159877;23;20239;-77
2022/08/26 09:52:04;;;;;;;;;;;19.90;99.90;;;;;;6160299;23;19916;-76
2022/08/26 09:54:32;;;;;;;;;;;19.90;99.90;;;;;;6135444;23;19952;-80
2022/08/26 09:57:17;;;;;;;;;;;19.90;99.90;;;;;;6159228;23;20224;-78
2022/08/26 09:59:45;;;;;;;;;;;19.90;99.90;;;;;;6158831;23;20247;-81
2022/08/26 10:02:20;;;;;;;;;;;19.80;99.90;;;;;;6159069;23;19920;-81
2022/08/26 10:04:55;;;;;;;;;;;19.70;99.90;;;;;;6160033;23;19956;-81
2022/08/26 10:07:41;;;;;;;;;;;19.60;99.90;;;;;;6159895;23;19920;-79
2022/08/26 10:10:25;;;;;;;;;;;19.60;99.90;;;;;;6159914;23;20341;-81
2022/08/26 10:13:00;;;;;;;;;;;19.50;99.90;;;;;;6159480;23;20286;-80
2022/08/26 10:15:36;;;;;;;;;;;;;;;;;;;;;
2022/08/26 10:18:17;;;;;;;;;;;19.60;99.90;;;;;;6184801;23;19944;-81
2022/08/26 10:21:12;;;;;;;;;;;19.70;99.90;;;;;;6159881;23;19986;-83
2022/08/26 10:23:48;;;;;;;;;;;19.80;99.90;;;;;;6153328;23;19924;-81
2022/08/26 10:26:19;;;;;;;;;;;19.80;99.90;;;;;;6159429;23;20291;-82
2022/08/26 10:29:14;;;;;;;;;;;19.80;99.90;;;;;;6159757;23;20019;-82
2022/08/26 10:31:51;;;;;;;;;;;19.90;99.90;;;;;;6145989;23;20283;-82
2022/08/26 10:34:31;;;;;;;;;;;19.90;99.90;;;;;;6169046;23;20039;-80
2022/08/26 10:37:30;;;;;;;;;;;20.00;99.90;;;;;;6185162;23;19970;-82
2022/08/26 10:40:15;;;;;;;;;;;20.00;99.90;;;;;;6145994;23;19921;-80
2022/08/26 10:43:06;;;;;;;;;;;20.20;99.90;;;;;;6161357;23;19920;-81
2022/08/26 10:45:36;;;;;;;;;;;20.10;99.90;;;;;;6161736;23;20338;-81
2022/08/26 10:48:08;;;;;;;;;;;20.20;99.90;;;;;;6159486;23;19975;-82
2022/08/26 10:51:08;;;;;;;;;;;;;;;;;;;;;
2022/08/26 10:53:53;;;;;;;;;;;20.30;99.90;;;;;;6186704;23;20295;-81
2022/08/26 11:03:10;;;;;;;;;;;20.40;99.90;;;;;;6140645;23;19916;-79
2022/08/26 11:06:07;;;;;;;;;;;20.30;99.90;;;;;;6166403;23;19920;-82
2022/08/26 11:09:24;;;;;;;;;;;;;;;;;;;;;
2022/08/26 11:12:31;;;;;;;;;;;20.30;99.90;;;;;;6130378;23;20048;-76
2022/08/26 11:14:57;;;;;;;;;;;20.30;99.90;;;;;;6160203;23;20299;-78
2022/08/26 11:17:41;;;;;;;;;;;20.30;99.90;;;;;;6159403;23;19916;-78
2022/08/26 11:20:07;;;;;;;;;;;20.30;99.90;;;;;;6158995;23;19917;-78
2022/08/26 11:22:46;;;;;;;;;;;20.40;99.90;;;;;;6159719;23;19916;-87
2022/08/26 12:05:19;;;;;;;;;;;20.70;99.90;;;;;;6180378;22;20010;-79
2022/08/26 12:07:47;;;;;;;;;;;20.80;99.90;;;;;;6161194;23;19926;-77
2022/08/26 12:10:24;;;;;;;;;;;20.80;99.90;;;;;;6185264;23;19916;-77
2022/08/26 12:43:38;;;;;;;;;;;20.50;99.90;;;;;;6136813;23;20315;-70
2022/08/26 12:46:04;;;;;;;;;;;20.30;99.90;;;;;;6185026;23;19921;-68
2022/08/26 12:48:35;;;;;;;;;;;20.20;99.90;;;;;;6183614;23;19931;-68
2022/08/26 12:51:01;;;;;;;;;;;20.00;99.90;;;;;;6183504;23;19991;-71
2022/08/26 12:53:28;;;;;;;;;;;19.90;99.90;;;;;;6183493;23;19916;-69
2022/08/26 12:55:55;;;;;;;;;;;19.90;99.90;;;;;;6182374;23;20019;-69
2022/08/26 12:58:24;;;;;;;;;;;19.90;99.90;;;;;;6182872;23;19920;-71
2022/08/26 13:00:51;;;;;;;;;;;19.80;99.90;;;;;;6158437;23;20381;-73
2022/08/26 13:03:26;;;;;;;;;;;19.90;99.90;;;;;;6183314;23;20374;-74
2022/08/26 13:05:52;;;;;;;;;;;19.90;99.90;;;;;;6208993;23;19996;-71
2022/08/26 13:08:25;;;;;;;;;;;19.90;99.90;;;;;;6185142;23;19948;-69
2022/08/26 13:11:09;;;;;;;;;;;20.00;99.90;;;;;;6184836;23;20347;-70
2022/08/26 13:47:35;;;;;;;;;;;20.00;99.90;;;;;;6094911;23;19957;-77
2022/08/26 13:51:07;;;;;;;;;;;;;;;;;;;;;
2022/08/26 15:22:37;;;;;;;;;;;20.20;99.90;;;;;;6188557;23;19919;-77
2022/08/26 15:36:48;;;;;;;;;;;;;;;;;;;;;
2022/08/26 15:49:44;;;;;;;;;;;19.90;99.90;;;;;;5909122;24;19919;-78
2022/08/26 15:53:03;;;;;;;;;;;;;;;;;;;;;
2022/08/26 15:56:06;;;;;;;;;;;;;;;;;;;;;
2022/08/26 16:29:57;;;;;;;;;;;19.90;99.90;;;;;;6123297;23;19921;-77
2022/08/26 16:36:32;;;;;;;;;;;19.70;99.90;;;;;;6010166;23;19918;-76
2022/08/26 16:43:18;;;;;;;;;;;19.80;99.90;;;;;;6037610;23;19922;-76
2022/08/26 17:04:22;;;;;;;;;;;19.30;99.90;;;;;;5912412;24;19934;-77
2022/08/26 17:18:12;;;;;;;;;;;;;;;;;;;;;
2022/08/26 17:21:24;;;;;;;;;;;19.10;99.90;;;;;;5785699;24;20130;-79
2022/08/26 17:27:51;;;;;;;;;;;19.00;99.90;;;;;;6043113;23;19916;-77
2022/08/26 17:30:41;;;;;;;;;;;19.00;99.90;;;;;;6081034;23;19925;-79
2022/08/26 17:33:57;;;;;;;;;;;18.80;99.90;;;;;;6089003;23;20411;-78
2022/08/26 17:47:39;;;;;;;;;;;;;;;;;;;;;
2022/08/26 17:50:49;;;;;;;;;;;18.50;99.90;;;;;;6016224;23;19973;-79
2022/08/26 18:02:03;;;;;;;;;;;;;;;;;;;;;
2022/08/26 18:10:48;;;;;;;;;;;18.60;99.90;;;;;;6264484;22;20334;-78
2022/08/26 18:14:23;;;;;;;;;;;18.50;99.90;;;;;;6254083;22;19918;-78
2022/08/26 18:28:12;;;;;;;;;;;;;;;;;;;;;
2022/08/26 18:34:39;;;;;;;;;;;18.00;99.90;;;;;;6015613;23;20018;-79
2022/08/26 18:40:35;;;;;;;;;;;18.00;99.90;;;;;;5920014;24;20320;-76
2022/08/26 18:43:25;;;;;;;;;;;17.90;99.90;;;;;;5930313;24;19919;-82
2022/08/26 18:46:13;;;;;;;;;;;17.80;99.90;;;;;;5930114;24;19919;-80
2022/08/26 18:48:57;;;;;;;;;;;17.70;99.90;;;;;;5930316;24;20337;-83
2022/08/26 18:51:51;;;;;;;;;;;17.60;99.90;;;;;;5976230;23;19996;-75
2022/08/26 18:54:29;;;;;;;;;;;17.70;99.90;;;;;;6037566;23;19925;-78
2022/08/26 18:56:58;;;;;;;;;;;17.60;99.90;;;;;;6100089;23;19917;-74
2022/08/26 18:59:24;;;;;;;;;;;17.50;99.90;;;;;;6102655;23;19921;-75
2022/08/26 19:01:49;;;;;;;;;;;17.40;99.90;;;;;;6127429;23;19959;-77
2022/08/26 19:04:16;;;;;;;;;;;17.30;99.90;;;;;;6102296;23;19963;-76
2022/08/26 19:06:42;;;;;;;;;;;17.30;99.90;;;;;;6103243;23;20371;-79
2022/08/26 19:09:14;;;;;;;;;;;17.30;99.90;;;;;;6102641;23;19916;-82
2022/08/26 19:11:40;;;;;;;;;;;17.20;99.90;;;;;;6135158;23;20048;-75
2022/08/26 19:14:07;;;;;;;;;;;17.20;99.90;;;;;;6187746;23;19920;-73
2022/08/26 19:19:33;;;;;;;;;;;17.10;99.90;;;;;;6148836;23;19926;-75
2022/08/26 19:22:02;;;;;;;;;;;17.10;99.90;;;;;;6164614;23;19991;-75
2022/08/26 19:24:47;;;;;;;;;;;17.00;99.90;;;;;;6191084;23;19927;-78
2022/08/26 19:27:32;;;;;;;;;;;16.90;99.90;;;;;;6189725;23;19915;-73
2022/08/26 19:29:58;;;;;;;;;;;16.90;99.90;;;;;;6164460;23;20005;-73
2022/08/26 19:32:24;;;;;;;;;;;16.90;99.90;;;;;;6189288;23;20327;-73
2022/08/26 19:34:55;;;;;;;;;;;16.90;99.90;;;;;;6164641;23;19927;-73
2022/08/26 19:37:20;;;;;;;;;;;16.90;99.90;;;;;;6164657;23;19916;-74
2022/08/26 19:39:46;;;;;;;;;;;16.80;99.90;;;;;;6164546;23;19926;-73
2022/08/26 19:42:18;;;;;;;;;;;16.80;99.90;;;;;;6164399;23;19916;-73
2022/08/26 19:47:28;;;;;;;;;;;16.70;99.90;;;;;;6191114;23;19916;-75
2022/08/26 19:49:58;;;;;;;;;;;16.60;99.90;;;;;;6166022;23;19970;-76
2022/08/26 19:52:24;;;;;;;;;;;16.60;99.90;;;;;;6166448;23;19958;-74
2022/08/26 19:54:50;;;;;;;;;;;16.50;99.90;;;;;;6166194;23;19915;-74
2022/08/26 19:57:16;;;;;;;;;;;16.50;99.90;;;;;;6218128;23;19923;-71
2022/08/26 19:59:42;;;;;;;;;;;16.40;99.90;;;;;;6190946;23;19955;-72
2022/08/26 20:02:08;;;;;;;;;;;16.40;99.90;;;;;;6166632;23;19916;-71
2022/08/26 20:04:34;;;;;;;;;;;16.40;99.90;;;;;;6166604;23;19978;-74
2022/08/26 20:07:00;;;;;;;;;;;16.40;99.90;;;;;;6166287;23;19919;-72
2022/08/26 20:09:29;;;;;;;;;;;16.40;99.90;;;;;;6166259;23;19923;-75
2022/08/26 20:11:55;;;;;;;;;;;16.40;99.90;;;;;;6165529;23;19927;-74
2022/08/26 20:14:21;;;;;;;;;;;16.40;99.90;;;;;;6166356;23;20249;-75
2022/08/26 20:16:48;;;;;;;;;;;16.40;99.90;;;;;;6192168;23;19923;-75
2022/08/26 20:21:57;;;;;;;;;;;16.40;99.90;;;;;;6190313;23;19970;-74
2022/08/26 20:24:25;;;;;;;;;;;16.30;99.90;;;;;;6190779;23;20285;-76
2022/08/26 20:26:50;;;;;;;;;;;16.30;99.90;;;;;;6141806;23;20343;-73
2022/08/26 20:29:16;;;;;;;;;;;16.30;99.90;;;;;;6165808;23;19923;-74
2022/08/26 20:31:43;;;;;;;;;;;16.20;99.90;;;;;;6165860;23;19919;-73
2022/08/26 20:34:09;;;;;;;;;;;16.20;99.90;;;;;;6190605;23;20338;-73
2022/08/26 20:36:36;;;;;;;;;;;16.10;99.90;;;;;;6190910;23;19948;-77
2022/08/26 20:39:02;;;;;;;;;;;16.10;99.90;;;;;;6190659;23;20327;-74
2022/08/26 20:41:27;;;;;;;;;;;16.10;99.90;;;;;;6190281;23;19916;-75
2022/08/26 20:43:54;;;;;;;;;;;16.10;99.90;;;;;;6165850;23;19920;-75
2022/08/26 20:46:20;;;;;;;;;;;16.10;99.90;;;;;;6165188;23;20353;-74
2022/08/26 20:48:46;;;;;;;;;;;16.10;99.90;;;;;;6190431;23;19920;-75
2022/08/26 20:51:11;;;;;;;;;;;16.20;99.90;;;;;;6165593;23;20015;-74
2022/08/26 20:53:37;;;;;;;;;;;16.20;99.90;;;;;;6165591;23;19947;-74
2022/08/26 20:56:04;;;;;;;;;;;16.10;99.90;;;;;;6165684;23;19943;-74
2022/08/26 20:58:30;;;;;;;;;;;16.10;99.90;;;;;;6166008;23;19916;-75
2022/08/26 21:00:56;;;;;;;;;;;16.10;99.90;;;;;;6166060;23;19916;-76
2022/08/26 21:03:22;;;;;;;;;;;16.10;99.90;;;;;;6165999;23;19971;-76
2022/08/26 21:05:47;;;;;;;;;;;16.00;99.90;;;;;;6166040;23;19920;-74
2022/08/26 21:08:13;;;;;;;;;;;16.00;99.90;;;;;;6165462;23;20260;-75
2022/08/26 21:10:39;;;;;;;;;;;15.90;99.90;;;;;;6170436;23;19919;-74
2022/08/26 21:13:05;;;;;;;;;;;15.80;99.90;;;;;;6220613;23;19945;-75
2022/08/26 21:15:31;;;;;;;;;;;15.80;99.90;;;;;;6220648;23;19916;-74
2022/08/26 21:17:57;;;;;;;;;;;15.70;99.90;;;;;;6220903;23;19989;-74
2022/08/26 21:20:23;;;;;;;;;;;15.70;99.90;;;;;;6220602;23;19927;-75
2022/08/26 21:22:49;;;;;;;;;;;15.70;99.90;;;;;;6220679;23;20326;-77
2022/08/26 21:25:15;;;;;;;;;;;15.60;99.90;;;;;;6220780;23;20250;-76
2022/08/26 21:27:40;;;;;;;;;;;15.60;99.90;;;;;;6195474;23;19927;-75
2022/08/26 21:30:06;;;;;;;;;;;15.60;99.90;;;;;;6195297;23;20300;-73
2022/08/26 21:32:32;;;;;;;;;;;15.60;99.90;;;;;;6195476;23;19919;-74
2022/08/26 21:34:58;;;;;;;;;;;15.60;99.90;;;;;;6220389;23;20353;-75
2022/08/26 21:37:25;;;;;;;;;;;15.60;99.90;;;;;;6220236;23;19922;-75
2022/08/26 21:39:54;;;;;;;;;;;15.60;99.90;;;;;;6220437;23;19927;-74
2022/08/26 21:42:20;;;;;;;;;;;15.60;99.90;;;;;;6195195;23;19919;-75
2022/08/26 21:44:46;;;;;;;;;;;15.50;99.90;;;;;;6195701;23;19966;-74
2022/08/26 21:47:11;;;;;;;;;;;15.50;99.90;;;;;;6195682;23;19954;-75
2022/08/26 21:49:37;;;;;;;;;;;15.50;99.90;;;;;;6197380;23;19920;-74
2022/08/26 21:52:03;;;;;;;;;;;15.40;99.90;;;;;;6196735;23;19990;-74
2022/08/26 21:54:30;;;;;;;;;;;15.40;99.90;;;;;;6195560;23;20343;-76
2022/08/26 21:56:55;;;;;;;;;;;15.40;99.90;;;;;;6247409;23;20250;-74
2022/08/26 21:59:21;;;;;;;;;;;15.30;99.90;;;;;;6219549;23;19919;-74
2022/08/26 22:01:47;;;;;;;;;;;15.30;99.90;;;;;;6194638;23;19920;-74
2022/08/26 22:04:13;;;;;;;;;;;15.20;99.90;;;;;;6194003;23;19919;-75
2022/08/26 22:06:41;;;;;;;;;;;15.20;99.90;;;;;;6219422;23;19923;-73
2022/08/26 22:09:06;;;;;;;;;;;15.10;99.90;;;;;;6195078;23;19955;-77
2022/08/26 22:11:32;;;;;;;;;;;15.10;99.90;;;;;;6219959;23;19927;-78
2022/08/26 22:13:58;;;;;;;;;;;15.00;99.90;;;;;;6194972;23;19915;-77
2022/08/26 22:16:25;;;;;;;;;;;15.00;99.90;;;;;;6194973;23;19965;-75
2022/08/26 22:18:52;;;;;;;;;;;14.90;99.90;;;;;;6170549;23;19955;-74
2022/08/26 22:21:19;;;;;;;;;;;14.90;99.90;;;;;;6219932;23;19916;-74
2022/08/26 22:23:45;;;;;;;;;;;14.90;99.90;;;;;;6195241;23;20345;-77
2022/08/26 22:26:12;;;;;;;;;;;14.80;99.90;;;;;;6219927;23;19916;-74
2022/08/26 22:28:38;;;;;;;;;;;14.80;99.90;;;;;;6194711;23;19947;-75
2022/08/26 22:31:05;;;;;;;;;;;14.80;99.90;;;;;;6195248;23;19916;-75
2022/08/26 22:33:30;;;;;;;;;;;14.80;99.90;;;;;;6194968;23;20250;-74
2022/08/26 22:35:56;;;;;;;;;;;14.80;99.90;;;;;;6194613;23;19922;-74
2022/08/26 22:38:22;;;;;;;;;;;14.80;99.90;;;;;;6220333;23;19920;-75
2022/08/26 22:40:49;;;;;;;;;;;14.90;99.90;;;;;;6220019;23;20294;-74
2022/08/26 22:43:16;;;;;;;;;;;14.90;99.90;;;;;;6220106;23;20372;-75
2022/08/26 22:45:44;;;;;;;;;;;15.00;99.90;;;;;;6194742;23;19920;-74
2022/08/26 22:48:11;;;;;;;;;;;15.00;99.90;;;;;;6195072;23;19947;-75
2022/08/26 22:50:36;;;;;;;;;;;15.00;99.90;;;;;;6194601;23;19985;-73
2022/08/26 22:53:02;;;;;;;;;;;15.00;99.90;;;;;;6194689;23;20334;-75
2022/08/26 22:55:28;;;;;;;;;;;15.00;99.90;;;;;;6194551;23;19916;-75
2022/08/26 22:57:54;;;;;;;;;;;15.00;99.90;;;;;;6219716;23;19939;-73
2022/08/26 23:00:19;;;;;;;;;;;15.10;99.90;;;;;;6219401;23;19915;-75
2022/08/26 23:02:45;;;;;;;;;;;15.10;99.90;;;;;;6220057;23;20020;-74
2022/08/26 23:05:11;;;;;;;;;;;15.10;99.90;;;;;;6194713;23;20389;-73
2022/08/26 23:07:37;;;;;;;;;;;15.10;99.90;;;;;;6219391;23;19942;-75
2022/08/26 23:10:04;;;;;;;;;;;15.10;99.90;;;;;;6219064;23;19919;-73
2022/08/26 23:12:30;;;;;;;;;;;15.10;99.90;;;;;;6219343;23;19923;-74
2022/08/26 23:14:55;;;;;;;;;;;15.10;99.90;;;;;;6219962;23;19919;-74
2022/08/26 23:17:21;;;;;;;;;;;15.20;99.90;;;;;;6219667;23;20033;-75
2022/08/26 23:19:47;;;;;;;;;;;15.10;99.90;;;;;;6246487;23;20224;-77